sensor_id;sensor_type;location;lat;lon;timestamp;pressure;altitude;pressure_sealevel;temperature;humidity
67740;BME280;54536;50.090;14.420;2023-05-21T00:00:48;99640.41;;;18.78;59.87
67740;BME280;54536;50.090;14.420;2023-05-21T00:03:36;99635.69;;;18.65;60.24
67740;BME280;54536;50.090;14.420;2023-05-21T00:06:02;99633.47;;;18.69;59.51
67740;BME280;54536;50.090;14.420;2023-05-21T00:08:28;99634.56;;;18.60;60.36
67740;BME280;54536;50.090;14.420;2023-05-21T00:10:55;99634.75;;;18.58;60.08
67740;BME280;54536;50.090;14.420;2023-05-21T00:13:21;99625.47;;;18.69;60.34
67740;BME280;54536;50.090;14.420;2023-05-21T00:15:47;99627.13;;;18.70;60.33
67740;BME280;54536;50.090;14.420;2023-05-21T00:18:13;99621.34;;;18.66;60.03
67740;BME280;54536;50.090;14.420;2023-05-21T00:20:41;99622.91;;;18.61;60.77
67740;BME280;54536;50.090;14.420;2023-05-21T00:23:07;99616.66;;;18.68;60.31
67740;BME280;54536;50.090;14.420;2023-05-21T00:25:35;99613.31;;;18.75;60.04
67740;BME280;54536;50.090;14.420;2023-05-21T00:28:01;99617.69;;;18.67;60.31
67740;BME280;54536;50.090;14.420;2023-05-21T00:30:28;99618.06;;;18.64;60.27
67740;BME280;54536;50.090;14.420;2023-05-21T00:32:54;99617.03;;;18.65;60.20
67740;BME280;54536;50.090;14.420;2023-05-21T00:35:20;99614.06;;;18.60;60.14
67740;BME280;54536;50.090;14.420;2023-05-21T00:37:46;99611.59;;;18.59;60.83
67740;BME280;54536;50.090;14.420;2023-05-21T00:40:13;99604.44;;;18.59;60.85
67740;BME280;54536;50.090;14.420;2023-05-21T00:42:40;99614.72;;;18.47;61.46
67740;BME280;54536;50.090;14.420;2023-05-21T00:45:07;99613.06;;;18.46;60.79
67740;BME280;54536;50.090;14.420;2023-05-21T00:47:34;99616.09;;;18.43;60.79
67740;BME280;54536;50.090;14.420;2023-05-21T00:50:02;99612.22;;;18.46;61.51
67740;BME280;54536;50.090;14.420;2023-05-21T00:52:29;99608.91;;;18.44;61.33
67740;BME280;54536;50.090;14.420;2023-05-21T00:54:56;99615.34;;;18.35;61.24
67740;BME280;54536;50.090;14.420;2023-05-21T00:57:24;99605.69;;;18.34;61.67
67740;BME280;54536;50.090;14.420;2023-05-21T00:59:52;99607.72;;;18.32;61.88
67740;BME280;54536;50.090;14.420;2023-05-21T01:02:18;99609.44;;;18.24;61.88
67740;BME280;54536;50.090;14.420;2023-05-21T01:04:45;99606.41;;;18.28;61.41
67740;BME280;54536;50.090;14.420;2023-05-21T01:07:12;99600.25;;;18.27;61.43
67740;BME280;54536;50.090;14.420;2023-05-21T01:09:42;99596.72;;;18.35;61.38
67740;BME280;54536;50.090;14.420;2023-05-21T01:12:10;99600.72;;;18.31;61.89
67740;BME280;54536;50.090;14.420;2023-05-21T01:14:39;99598.16;;;18.22;61.59
67740;BME280;54536;50.090;14.420;2023-05-21T01:17:06;99593.09;;;18.28;61.71
67740;BME280;54536;50.090;14.420;2023-05-21T01:19:35;99588.34;;;18.23;61.90
67740;BME280;54536;50.090;14.420;2023-05-21T01:22:06;99591.16;;;18.07;62.21
67740;BME280;54536;50.090;14.420;2023-05-21T01:24:34;99584.75;;;18.16;62.22
67740;BME280;54536;50.090;14.420;2023-05-21T01:27:02;99581.63;;;18.12;62.31
67740;BME280;54536;50.090;14.420;2023-05-21T01:29:31;99582.69;;;18.03;63.07
67740;BME280;54536;50.090;14.420;2023-05-21T01:34:57;99587.03;;;18.19;61.71
67740;BME280;54536;50.090;14.420;2023-05-21T01:37:45;99584.75;;;18.16;61.89
67740;BME280;54536;50.090;14.420;2023-05-21T01:42:45;99588.94;;;18.10;61.94
67740;BME280;54536;50.090;14.420;2023-05-21T01:45:15;99587.09;;;18.11;62.71
67740;BME280;54536;50.090;14.420;2023-05-21T01:47:46;99576.81;;;18.08;62.43
67740;BME280;54536;50.090;14.420;2023-05-21T01:50:16;99586.84;;;18.06;62.08
67740;BME280;54536;50.090;14.420;2023-05-21T01:52:50;99586.13;;;18.12;61.85
67740;BME280;54536;50.090;14.420;2023-05-21T01:55:36;99586.47;;;18.09;62.49
67740;BME280;54536;50.090;14.420;2023-05-21T01:58:06;99582.50;;;18.05;62.94
67740;BME280;54536;50.090;14.420;2023-05-21T02:00:33;99581.50;;;18.06;62.40
67740;BME280;54536;50.090;14.420;2023-05-21T02:02:59;99586.53;;;18.00;62.29
67740;BME280;54536;50.090;14.420;2023-05-21T02:05:25;99588.25;;;17.93;62.58
67740;BME280;54536;50.090;14.420;2023-05-21T02:07:51;99578.09;;;17.97;62.80
67740;BME280;54536;50.090;14.420;2023-05-21T02:10:21;99582.38;;;17.98;62.65
67740;BME280;54536;50.090;14.420;2023-05-21T02:12:47;99581.94;;;17.94;62.99
67740;BME280;54536;50.090;14.420;2023-05-21T02:15:14;99578.53;;;17.86;63.53
67740;BME280;54536;50.090;14.420;2023-05-21T02:17:43;99579.63;;;17.91;63.22
67740;BME280;54536;50.090;14.420;2023-05-21T02:20:10;99581.19;;;17.86;63.19
67740;BME280;54536;50.090;14.420;2023-05-21T02:22:40;99582.81;;;17.87;63.48
67740;BME280;54536;50.090;14.420;2023-05-21T02:25:08;99583.00;;;17.85;62.84
67740;BME280;54536;50.090;14.420;2023-05-21T02:27:36;99583.19;;;17.84;63.40
67740;BME280;54536;50.090;14.420;2023-05-21T02:30:04;99577.88;;;17.75;63.68
67740;BME280;54536;50.090;14.420;2023-05-21T02:32:33;99579.50;;;17.85;62.85
67740;BME280;54536;50.090;14.420;2023-05-21T02:35:01;99577.56;;;17.78;63.22
67740;BME280;54536;50.090;14.420;2023-05-21T02:37:28;99574.53;;;17.82;63.10
67740;BME280;54536;50.090;14.420;2023-05-21T02:39:55;99573.91;;;17.80;63.18
67740;BME280;54536;50.090;14.420;2023-05-21T02:42:22;99575.09;;;17.77;63.46
67740;BME280;54536;50.090;14.420;2023-05-21T02:44:49;99566.63;;;17.73;63.82
67740;BME280;54536;50.090;14.420;2023-05-21T02:47:17;99572.19;;;17.87;63.57
67740;BME280;54536;50.090;14.420;2023-05-21T02:49:43;99563.91;;;17.82;63.71
67740;BME280;54536;50.090;14.420;2023-05-21T02:52:09;99568.59;;;17.71;64.02
67740;BME280;54536;50.090;14.420;2023-05-21T02:54:36;99564.09;;;17.80;63.50
67740;BME280;54536;50.090;14.420;2023-05-21T02:57:02;99567.41;;;17.82;63.47
67740;BME280;54536;50.090;14.420;2023-05-21T02:59:28;99563.91;;;17.82;63.74
67740;BME280;54536;50.090;14.420;2023-05-21T03:01:54;99570.75;;;17.76;63.52
67740;BME280;54536;50.090;14.420;2023-05-21T03:04:21;99572.75;;;17.74;63.35
67740;BME280;54536;50.090;14.420;2023-05-21T03:06:48;99582.63;;;17.65;63.90
67740;BME280;54536;50.090;14.420;2023-05-21T03:09:21;99578.50;;;17.63;63.84
67740;BME280;54536;50.090;14.420;2023-05-21T03:11:47;99572.44;;;17.69;63.80
67740;BME280;54536;50.090;14.420;2023-05-21T03:14:15;99573.88;;;17.57;63.94
67740;BME280;54536;50.090;14.420;2023-05-21T03:16:41;99573.34;;;17.61;64.43
67740;BME280;54536;50.090;14.420;2023-05-21T03:19:09;99572.16;;;17.64;64.01
67740;BME280;54536;50.090;14.420;2023-05-21T03:21:36;99569.97;;;17.67;64.45
67740;BME280;54536;50.090;14.420;2023-05-21T03:24:05;99571.34;;;17.63;64.41
67740;BME280;54536;50.090;14.420;2023-05-21T03:26:34;99571.00;;;17.66;64.21
67740;BME280;54536;50.090;14.420;2023-05-21T03:29:01;99567.56;;;17.58;64.21
67740;BME280;54536;50.090;14.420;2023-05-21T03:31:27;99567.69;;;17.64;64.14
67740;BME280;54536;50.090;14.420;2023-05-21T03:33:53;99566.50;;;17.67;64.15
67740;BME280;54536;50.090;14.420;2023-05-21T03:36:20;99569.97;;;17.67;63.60
67740;BME280;54536;50.090;14.420;2023-05-21T03:38:46;99559.94;;;17.77;63.63
67740;BME280;54536;50.090;14.420;2023-05-21T03:41:12;99571.63;;;17.68;63.99
67740;BME280;54536;50.090;14.420;2023-05-21T03:43:39;99567.88;;;17.63;64.44
67740;BME280;54536;50.090;14.420;2023-05-21T03:46:05;99566.16;;;17.70;64.29
67740;BME280;54536;50.090;14.420;2023-05-21T03:48:31;99569.97;;;17.67;64.21
67740;BME280;54536;50.090;14.420;2023-05-21T03:50:57;99581.63;;;17.66;64.21
67740;BME280;54536;50.090;14.420;2023-05-21T03:53:24;99568.50;;;17.65;64.04
67740;BME280;54536;50.090;14.420;2023-05-21T03:55:50;99571.75;;;17.52;64.36
67740;BME280;54536;50.090;14.420;2023-05-21T03:58:23;99577.28;;;17.65;64.49
67740;BME280;54536;50.090;14.420;2023-05-21T04:00:49;99575.75;;;17.79;63.62
67740;BME280;54536;50.090;14.420;2023-05-21T04:03:16;99579.25;;;17.71;63.41
67740;BME280;54536;50.090;14.420;2023-05-21T04:05:42;99578.06;;;17.74;63.55
67740;BME280;54536;50.090;14.420;2023-05-21T04:08:10;99575.41;;;17.74;63.22
67740;BME280;54536;50.090;14.420;2023-05-21T04:10:36;99579.09;;;17.73;63.24
67740;BME280;54536;50.090;14.420;2023-05-21T04:13:02;99578.78;;;17.68;63.46
67740;BME280;54536;50.090;14.420;2023-05-21T04:15:28;99578.31;;;17.64;63.95
67740;BME280;54536;50.090;14.420;2023-05-21T04:17:55;99573.09;;;17.71;63.99
67740;BME280;54536;50.090;14.420;2023-05-21T04:20:21;99579.44;;;17.70;63.78
67740;BME280;54536;50.090;14.420;2023-05-21T04:22:48;99578.63;;;17.69;63.68
67740;BME280;54536;50.090;14.420;2023-05-21T04:25:14;99578.63;;;17.69;63.97
67740;BME280;54536;50.090;14.420;2023-05-21T04:27:40;99572.28;;;17.70;63.70
67740;BME280;54536;50.090;14.420;2023-05-21T04:30:08;99575.91;;;17.77;64.12
67740;BME280;54536;50.090;14.420;2023-05-21T04:32:34;99583.94;;;17.69;64.20
67740;BME280;54536;50.090;14.420;2023-05-21T04:35:01;99581.53;;;17.83;63.74
67740;BME280;54536;50.090;14.420;2023-05-21T04:37:27;99581.69;;;17.81;63.68
67740;BME280;54536;50.090;14.420;2023-05-21T04:39:54;99584.00;;;17.84;63.78
67740;BME280;54536;50.090;14.420;2023-05-21T04:42:21;99588.25;;;17.93;64.25
67740;BME280;54536;50.090;14.420;2023-05-21T04:44:49;99591.59;;;17.95;63.58
67740;BME280;54536;50.090;14.420;2023-05-21T04:47:16;99595.53;;;17.99;63.17
67740;BME280;54536;50.090;14.420;2023-05-21T04:49:43;99595.56;;;18.14;63.12
67740;BME280;54536;50.090;14.420;2023-05-21T04:52:12;99600.25;;;18.12;62.75
67740;BME280;54536;50.090;14.420;2023-05-21T04:54:38;99601.06;;;18.13;63.10
67740;BME280;54536;50.090;14.420;2023-05-21T04:57:07;99590.59;;;18.11;63.09
67740;BME280;54536;50.090;14.420;2023-05-21T04:59:34;99585.38;;;18.18;62.69
67740;BME280;54536;50.090;14.420;2023-05-21T05:02:00;99588.13;;;18.24;63.27
67740;BME280;54536;50.090;14.420;2023-05-21T05:04:26;99583.81;;;18.23;63.26
67740;BME280;54536;50.090;14.420;2023-05-21T05:06:53;99573.75;;;18.34;62.46
67740;BME280;54536;50.090;14.420;2023-05-21T05:09:19;99579.38;;;18.39;62.30
67740;BME280;54536;50.090;14.420;2023-05-21T05:11:50;99577.44;;;18.47;62.55
67740;BME280;54536;50.090;14.420;2023-05-21T05:14:16;99575.41;;;18.49;61.89
67740;BME280;54536;50.090;14.420;2023-05-21T05:16:43;99586.72;;;18.52;61.68
67740;BME280;54536;50.090;14.420;2023-05-21T05:19:09;99581.75;;;18.63;61.57
67740;BME280;54536;50.090;14.420;2023-05-21T05:21:35;99586.91;;;18.65;61.96
67740;BME280;54536;50.090;14.420;2023-05-21T05:24:02;99585.53;;;18.69;61.40
67740;BME280;54536;50.090;14.420;2023-05-21T05:26:29;99582.31;;;18.74;61.38
67740;BME280;54536;50.090;14.420;2023-05-21T05:28:55;99573.59;;;18.80;60.97
67740;BME280;54536;50.090;14.420;2023-05-21T05:31:21;99589.13;;;18.76;61.41
67740;BME280;54536;50.090;14.420;2023-05-21T05:33:47;99592.81;;;18.75;61.53
67740;BME280;54536;50.090;14.420;2023-05-21T05:36:14;99583.06;;;18.82;61.49
67740;BME280;54536;50.090;14.420;2023-05-21T05:38:40;99583.06;;;18.82;61.29
67740;BME280;54536;50.090;14.420;2023-05-21T05:41:06;99573.97;;;18.91;60.81
67740;BME280;54536;50.090;14.420;2023-05-21T05:43:32;99579.47;;;19.05;60.83
67740;BME280;54536;50.090;14.420;2023-05-21T05:45:59;99579.09;;;19.08;61.04
67740;BME280;54536;50.090;14.420;2023-05-21T05:48:25;99572.44;;;19.18;60.67
67740;BME280;54536;50.090;14.420;2023-05-21T05:50:51;99570.13;;;19.30;60.62
67740;BME280;54536;50.090;14.420;2023-05-21T05:53:19;99566.31;;;19.39;60.40
67740;BME280;54536;50.090;14.420;2023-05-21T05:55:46;99569.88;;;19.47;59.78
67740;BME280;54536;50.090;14.420;2023-05-21T05:58:12;99562.44;;;19.42;60.19
67740;BME280;54536;50.090;14.420;2023-05-21T06:00:38;99570.56;;;19.55;60.07
67740;BME280;54536;50.090;14.420;2023-05-21T06:03:04;99561.47;;;19.64;59.69
67740;BME280;54536;50.090;14.420;2023-05-21T06:05:31;99561.81;;;19.61;59.40
67740;BME280;54536;50.090;14.420;2023-05-21T06:07:56;99563.81;;;19.74;59.19
67740;BME280;54536;50.090;14.420;2023-05-21T06:10:23;99555.41;;;19.77;59.35
67740;BME280;54536;50.090;14.420;2023-05-21T06:12:49;99557.22;;;19.92;58.61
67740;BME280;54536;50.090;14.420;2023-05-21T06:15:15;99565.00;;;19.93;58.80
67740;BME280;54536;50.090;14.420;2023-05-21T06:17:44;99564.09;;;20.07;58.08
67740;BME280;54536;50.090;14.420;2023-05-21T06:20:10;99571.09;;;20.08;57.89
67740;BME280;54536;50.090;14.420;2023-05-21T06:22:37;99564.19;;;20.21;57.48
67740;BME280;54536;50.090;14.420;2023-05-21T06:25:04;99564.66;;;20.24;57.65
67740;BME280;54536;50.090;14.420;2023-05-21T06:27:30;99557.34;;;20.40;56.99
67740;BME280;54536;50.090;14.420;2023-05-21T06:29:57;99562.31;;;20.49;56.94
67740;BME280;54536;50.090;14.420;2023-05-21T06:32:23;99562.44;;;20.63;56.76
67740;BME280;54536;50.090;14.420;2023-05-21T06:34:53;99558.97;;;20.69;56.35
67740;BME280;54536;50.090;14.420;2023-05-21T06:37:20;99556.78;;;20.86;55.92
67740;BME280;54536;50.090;14.420;2023-05-21T06:39:49;99556.00;;;20.92;56.16
67740;BME280;54536;50.090;14.420;2023-05-21T06:42:15;99559.09;;;20.95;55.67
67740;BME280;54536;50.090;14.420;2023-05-21T06:44:41;99554.56;;;20.96;55.51
67740;BME280;54536;50.090;14.420;2023-05-21T06:47:07;99550.69;;;21.05;55.32
67740;BME280;54536;50.090;14.420;2023-05-21T06:49:34;99544.34;;;21.06;55.60
67740;BME280;54536;50.090;14.420;2023-05-21T06:52:00;99541.50;;;21.21;55.15
67740;BME280;54536;50.090;14.420;2023-05-21T06:54:26;99535.34;;;21.34;54.70
67740;BME280;54536;50.090;14.420;2023-05-21T06:56:52;99540.13;;;21.45;54.15
67740;BME280;54536;50.090;14.420;2023-05-21T06:59:19;99547.34;;;21.51;54.29
67740;BME280;54536;50.090;14.420;2023-05-21T07:01:45;99541.81;;;21.53;54.01
67740;BME280;54536;50.090;14.420;2023-05-21T07:04:11;99547.59;;;21.69;53.42
67740;BME280;54536;50.090;14.420;2023-05-21T07:06:37;99550.03;;;21.71;53.26
67740;BME280;54536;50.090;14.420;2023-05-21T07:09:04;99542.66;;;21.73;53.42
67740;BME280;54536;50.090;14.420;2023-05-21T07:11:31;99544.69;;;21.71;53.12
67740;BME280;54536;50.090;14.420;2023-05-21T07:13:58;99549.22;;;21.77;53.62
67740;BME280;54536;50.090;14.420;2023-05-21T07:16:25;99553.16;;;21.94;52.86
67740;BME280;54536;50.090;14.420;2023-05-21T07:18:52;99549.03;;;22.05;52.75
67740;BME280;54536;50.090;14.420;2023-05-21T07:21:18;99550.69;;;22.19;52.29
67740;BME280;54536;50.090;14.420;2023-05-21T07:23:44;99545.13;;;22.34;52.18
67740;BME280;54536;50.090;14.420;2023-05-21T07:26:10;99548.19;;;22.38;52.07
67740;BME280;54536;50.090;14.420;2023-05-21T07:28:37;99533.97;;;22.44;51.91
67740;BME280;54536;50.090;14.420;2023-05-21T07:31:03;99542.81;;;22.44;51.67
67740;BME280;54536;50.090;14.420;2023-05-21T07:33:29;99538.25;;;22.58;51.62
67740;BME280;54536;50.090;14.420;2023-05-21T07:35:55;99543.41;;;22.60;51.49
67740;BME280;54536;50.090;14.420;2023-05-21T07:38:21;99542.13;;;22.69;51.35
67740;BME280;54536;50.090;14.420;2023-05-21T07:40:47;99545.81;;;22.75;51.20
67740;BME280;54536;50.090;14.420;2023-05-21T07:43:14;99537.94;;;22.86;50.68
67740;BME280;54536;50.090;14.420;2023-05-21T07:45:40;99548.47;;;22.95;50.33
67740;BME280;54536;50.090;14.420;2023-05-21T07:48:06;99542.66;;;22.98;50.53
67740;BME280;54536;50.090;14.420;2023-05-21T07:50:32;99537.94;;;23.00;50.37
67740;BME280;54536;50.090;14.420;2023-05-21T07:52:59;99538.06;;;23.11;49.64
67740;BME280;54536;50.090;14.420;2023-05-21T07:55:25;99536.19;;;23.19;49.63
67740;BME280;54536;50.090;14.420;2023-05-21T07:57:51;99535.75;;;23.22;49.72
67740;BME280;54536;50.090;14.420;2023-05-21T08:00:18;99529.03;;;23.37;49.61
67740;BME280;54536;50.090;14.420;2023-05-21T08:02:44;99539.91;;;23.49;49.41
67740;BME280;54536;50.090;14.420;2023-05-21T08:05:10;99538.13;;;23.36;49.77
67740;BME280;54536;50.090;14.420;2023-05-21T08:07:39;99540.34;;;23.46;50.06
67740;BME280;54536;50.090;14.420;2023-05-21T08:10:05;99530.38;;;23.53;49.72
67740;BME280;54536;50.090;14.420;2023-05-21T08:12:32;99534.44;;;23.69;49.44
67740;BME280;54536;50.090;14.420;2023-05-21T08:14:58;99529.00;;;23.76;49.17
67740;BME280;54536;50.090;14.420;2023-05-21T08:17:24;99538.38;;;23.92;48.76
67740;BME280;54536;50.090;14.420;2023-05-21T08:19:50;99535.56;;;24.05;48.12
67740;BME280;54536;50.090;14.420;2023-05-21T08:22:17;99533.38;;;24.20;47.43
67740;BME280;54536;50.090;14.420;2023-05-21T08:24:43;99530.69;;;24.20;47.87
67740;BME280;54536;50.090;14.420;2023-05-21T08:27:09;99524.94;;;24.17;48.03
67740;BME280;54536;50.090;14.420;2023-05-21T08:29:36;99528.38;;;24.24;47.47
67740;BME280;54536;50.090;14.420;2023-05-21T08:32:03;99521.94;;;24.25;47.43
67740;BME280;54536;50.090;14.420;2023-05-21T08:34:29;99521.22;;;24.36;47.50
67740;BME280;54536;50.090;14.420;2023-05-21T08:36:55;99519.72;;;24.40;47.58
67740;BME280;54536;50.090;14.420;2023-05-21T08:39:21;99520.94;;;24.44;47.82
67740;BME280;54536;50.090;14.420;2023-05-21T08:41:54;99517.00;;;24.47;47.91
67740;BME280;54536;50.090;14.420;2023-05-21T08:44:24;99509.59;;;24.61;48.09
67740;BME280;54536;50.090;14.420;2023-05-21T08:46:53;99515.50;;;24.69;47.79
67740;BME280;54536;50.090;14.420;2023-05-21T08:49:25;99519.50;;;24.79;46.78
67740;BME280;54536;50.090;14.420;2023-05-21T08:51:52;99508.28;;;24.82;46.92
67740;BME280;54536;50.090;14.420;2023-05-21T08:54:21;99507.94;;;24.78;46.64
67740;BME280;54536;50.090;14.420;2023-05-21T08:56:47;99511.16;;;24.87;46.84
67740;BME280;54536;50.090;14.420;2023-05-21T08:59:15;99506.22;;;24.84;46.85
67740;BME280;54536;50.090;14.420;2023-05-21T09:01:44;99500.91;;;24.95;46.60
67740;BME280;54536;50.090;14.420;2023-05-21T09:04:14;99503.97;;;25.11;46.70
67740;BME280;54536;50.090;14.420;2023-05-21T09:06:42;99498.69;;;25.22;45.91
67740;BME280;54536;50.090;14.420;2023-05-21T09:09:17;99499.28;;;25.25;45.54
67740;BME280;54536;50.090;14.420;2023-05-21T09:11:47;99505.16;;;25.33;45.38
67740;BME280;54536;50.090;14.420;2023-05-21T09:14:15;99493.34;;;25.34;44.74
67740;BME280;54536;50.090;14.420;2023-05-21T09:16:45;99500.16;;;25.49;44.87
67740;BME280;54536;50.090;14.420;2023-05-21T09:19:13;99501.56;;;25.51;45.01
67740;BME280;54536;50.090;14.420;2023-05-21T09:21:39;99503.34;;;25.57;45.10
67740;BME280;54536;50.090;14.420;2023-05-21T09:24:05;99500.41;;;25.59;44.73
67740;BME280;54536;50.090;14.420;2023-05-21T09:26:34;99500.41;;;25.59;44.64
67740;BME280;54536;50.090;14.420;2023-05-21T09:29:01;99494.91;;;25.65;44.41
67740;BME280;54536;50.090;14.420;2023-05-21T09:31:28;99495.97;;;25.76;44.16
67740;BME280;54536;50.090;14.420;2023-05-21T09:33:54;99502.78;;;25.79;44.01
67740;BME280;54536;50.090;14.420;2023-05-21T09:36:21;99499.00;;;25.80;43.96
67740;BME280;54536;50.090;14.420;2023-05-21T09:38:49;99497.09;;;25.87;43.47
67740;BME280;54536;50.090;14.420;2023-05-21T09:41:17;99495.56;;;25.91;43.69
67740;BME280;54536;50.090;14.420;2023-05-21T09:43:44;99490.28;;;25.96;43.31
67740;BME280;54536;50.090;14.420;2023-05-21T09:46:10;99491.59;;;25.94;43.83
67740;BME280;54536;50.090;14.420;2023-05-21T09:48:41;99495.06;;;26.06;43.72
67740;BME280;54536;50.090;14.420;2023-05-21T09:51:15;99490.16;;;26.14;43.36
67740;BME280;54536;50.090;14.420;2023-05-21T09:53:43;99485.59;;;26.15;42.35
67740;BME280;54536;50.090;14.420;2023-05-21T09:56:10;99486.19;;;26.17;42.60
67740;BME280;54536;50.090;14.420;2023-05-21T09:58:37;99483.34;;;26.24;43.02
67740;BME280;54536;50.090;14.420;2023-05-21T10:01:04;99481.81;;;26.28;42.90
67740;BME280;54536;50.090;14.420;2023-05-21T10:03:32;99483.56;;;26.34;42.50
67740;BME280;54536;50.090;14.420;2023-05-21T10:06:04;99485.31;;;26.40;42.71
67740;BME280;54536;50.090;14.420;2023-05-21T10:08:35;99481.91;;;26.45;42.76
67740;BME280;54536;50.090;14.420;2023-05-21T10:11:04;99485.31;;;26.52;42.26
67740;BME280;54536;50.090;14.420;2023-05-21T10:13:33;99481.78;;;26.63;42.19
67740;BME280;54536;50.090;14.420;2023-05-21T10:16:01;99469.78;;;26.71;41.65
67740;BME280;54536;50.090;14.420;2023-05-21T10:18:29;99472.44;;;26.82;39.91
67740;BME280;54536;50.090;14.420;2023-05-21T10:20:58;99470.53;;;26.95;40.15
67740;BME280;54536;50.090;14.420;2023-05-21T10:23:26;99467.34;;;26.98;40.04
67740;BME280;54536;50.090;14.420;2023-05-21T10:25:54;99454.03;;;27.08;39.68
67740;BME280;54536;50.090;14.420;2023-05-21T10:28:21;99463.16;;;27.19;39.50
67740;BME280;54536;50.090;14.420;2023-05-21T10:30:49;99450.84;;;27.11;39.65
67740;BME280;54536;50.090;14.420;2023-05-21T10:33:16;99444.09;;;26.97;39.61
67740;BME280;54536;50.090;14.420;2023-05-21T10:35:45;99452.53;;;27.00;39.62
67740;BME280;54536;50.090;14.420;2023-05-21T10:38:13;99442.63;;;27.35;38.35
67740;BME280;54536;50.090;14.420;2023-05-21T10:40:42;99445.81;;;27.31;38.63
67740;BME280;54536;50.090;14.420;2023-05-21T10:46:14;99435.09;;;27.20;38.87
67740;BME280;54536;50.090;14.420;2023-05-21T10:51:58;99440.16;;;27.16;38.07
67740;BME280;54536;50.090;14.420;2023-05-21T11:00:16;99442.94;;;27.72;36.81
67740;BME280;54536;50.090;14.420;2023-05-21T11:02:47;99438.47;;;27.77;37.41
67740;BME280;54536;50.090;14.420;2023-05-21T11:05:54;99445.47;;;27.95;36.82
67740;BME280;54536;50.090;14.420;2023-05-21T11:08:28;99429.81;;;27.97;35.44
67740;BME280;54536;50.090;14.420;2023-05-21T11:11:02;99438.66;;;28.10;35.83
67740;BME280;54536;50.090;14.420;2023-05-21T11:13:46;99439.41;;;28.27;35.28
67740;BME280;54536;50.090;14.420;2023-05-21T11:16:16;99433.50;;;28.30;36.03
67740;BME280;54536;50.090;14.420;2023-05-21T11:21:16;99434.06;;;28.32;36.25
67740;BME280;54536;50.090;14.420;2023-05-21T11:24:04;99426.44;;;28.46;35.47
67740;BME280;54536;50.090;14.420;2023-05-21T11:29:13;99428.47;;;28.17;35.60
67740;BME280;54536;50.090;14.420;2023-05-21T11:31:45;99425.00;;;28.21;35.07
67740;BME280;54536;50.090;14.420;2023-05-21T11:36:40;99428.72;;;28.37;35.59
67740;BME280;54536;50.090;14.420;2023-05-21T11:39:08;99427.75;;;28.43;35.43
67740;BME280;54536;50.090;14.420;2023-05-21T11:41:57;99421.81;;;28.46;36.35
67740;BME280;54536;50.090;14.420;2023-05-21T11:44:46;99415.41;;;28.53;36.55
67740;BME280;54536;50.090;14.420;2023-05-21T11:47:17;99422.31;;;28.43;36.13
67740;BME280;54536;50.090;14.420;2023-05-21T11:49:45;99414.31;;;28.54;35.60
67740;BME280;54536;50.090;14.420;2023-05-21T11:52:12;99412.31;;;28.66;35.51
67740;BME280;54536;50.090;14.420;2023-05-21T11:54:45;99418.72;;;28.87;34.94
67740;BME280;54536;50.090;14.420;2023-05-21T11:57:13;99409.75;;;29.08;34.00
67740;BME280;54536;50.090;14.420;2023-05-21T11:59:44;99400.19;;;29.65;33.30
67740;BME280;54536;50.090;14.420;2023-05-21T12:02:15;99397.38;;;30.45;31.92
67740;BME280;54536;50.090;14.420;2023-05-21T12:04:45;99397.78;;;31.20;30.15
67740;BME280;54536;50.090;14.420;2023-05-21T12:07:14;99399.44;;;31.36;29.55
67740;BME280;54536;50.090;14.420;2023-05-21T12:09:45;99389.50;;;30.53;29.89
67740;BME280;54536;50.090;14.420;2023-05-21T12:12:20;99398.50;;;29.96;31.44
67740;BME280;54536;50.090;14.420;2023-05-21T12:14:49;99408.19;;;30.40;29.87
67740;BME280;54536;50.090;14.420;2023-05-21T12:17:21;99401.28;;;30.95;29.15
67740;BME280;54536;50.090;14.420;2023-05-21T12:19:50;99399.06;;;30.76;30.16
67740;BME280;54536;50.090;14.420;2023-05-21T12:22:16;99401.28;;;31.51;28.76
67740;BME280;54536;50.090;14.420;2023-05-21T12:24:43;99388.50;;;31.62;28.19
67740;BME280;54536;50.090;14.420;2023-05-21T12:27:11;99389.06;;;30.87;29.53
67740;BME280;54536;50.090;14.420;2023-05-21T12:29:41;99400.50;;;31.51;28.04
67740;BME280;54536;50.090;14.420;2023-05-21T12:32:10;99371.88;;;32.54;26.24
67740;BME280;54536;50.090;14.420;2023-05-21T12:37:08;99379.00;;;31.03;29.28
67740;BME280;54536;50.090;14.420;2023-05-21T12:39:42;99380.81;;;30.41;29.87
67740;BME280;54536;50.090;14.420;2023-05-21T12:42:10;99369.19;;;29.98;31.16
67740;BME280;54536;50.090;14.420;2023-05-21T12:44:43;99374.78;;;29.76;31.75
67740;BME280;54536;50.090;14.420;2023-05-21T12:47:11;99371.84;;;29.46;31.07
67740;BME280;54536;50.090;14.420;2023-05-21T12:49:42;99374.69;;;29.24;31.77
67740;BME280;54536;50.090;14.420;2023-05-21T12:52:17;99378.66;;;29.11;31.59
67740;BME280;54536;50.090;14.420;2023-05-21T12:54:48;99365.72;;;28.91;30.99
67740;BME280;54536;50.090;14.420;2023-05-21T13:02:21;99366.22;;;31.29;27.87
67740;BME280;54536;50.090;14.420;2023-05-21T13:04:48;99350.19;;;30.71;27.67
67740;BME280;54536;50.090;14.420;2023-05-21T13:07:19;99353.06;;;30.34;28.29
67740;BME280;54536;50.090;14.420;2023-05-21T13:09:45;99355.66;;;30.82;27.27
67740;BME280;54536;50.090;14.420;2023-05-21T13:12:11;99347.50;;;30.82;27.69
67740;BME280;54536;50.090;14.420;2023-05-21T13:14:38;99362.09;;;30.60;27.56
67740;BME280;54536;50.090;14.420;2023-05-21T13:17:04;99356.84;;;30.28;27.84
67740;BME280;54536;50.090;14.420;2023-05-21T13:19:31;99355.66;;;30.97;26.83
67740;BME280;54536;50.090;14.420;2023-05-21T13:21:57;99362.38;;;31.71;24.99
67740;BME280;54536;50.090;14.420;2023-05-21T13:24:23;99360.06;;;32.14;22.60
67740;BME280;54536;50.090;14.420;2023-05-21T13:26:50;99352.44;;;32.71;21.12